メインページ
METAR-TAF:

METAR-TAF

空港 :

マリスカル・スクレ国際空港

キト, エクアドル

緯度: 0-06-48S, 経度: 78-21-31W, 海抜: 2400m

現時点の気象観測

当レポートは10分前の20:00(UTC)に作成
北/北西の風 12kt
気温 23°C
湿度 41%
気圧 1021 hPa
視程10km以上
高度4000ftの雲は散在している

METAR: SEQM 212000Z 34012KT 9999 SCT040 23/09 Q1021 NOSIG RMK A3021

時間: 15:10 (20:10 UTC)

予報

当レポートは3時間45分前の16:25(UTC)に作成
予報は21日の 18時(UTC)から 22日の 18時(UTC)まで有効
の風 12kt
視程10km以上
高度3000ftの千切れ雲あり
22日の 0000時(UTC)から
北/北東の風 4kt
視程10km以上
高度1000ftの雲はほとんどない
高度3000ftの雲は散在している
22日の 0600時(UTC)から
の風 kt
視程: 6000m
高度500ftの雲は散在している
高度1600ftの千切れ雲あり
22日の 09時(UTC)から 22日の 12時(UTC)まで一時的に
視程: 1000m
22日の 1300時(UTC)から
変向風 3kt
視程10km以上
高度3000ftの雲は散在している

TAF: SEQM 211625Z 2118/2218 36012KT 9999 BKN030 FM220000 03004KT 9999 FEW010 SCT030 FM220600 00000KT 6000 SCT005 BKN016 TEMPO 2209/2212 1000 BR FM221300 VRB03KT 9999 SCT030 TX24/2119Z TN11/2211Z

4,000以上の空港の気象観測と天気予報(METAR報とTAF報)

利用可能な観測所は地図上に黄色い丸と赤い丸で示す。

丸の上にカーソルを重ねると観測所名を参照できる。

次にクリックすると気象観測と天気予報を参照できる。

マップの切り替え:黒色「×」印の緑ボタンをクリックして拡大、「-」印の緑ボタンをクリックして縮小、緑色の三角印をクリックして隣りの地図に切り替え


METAR-TAF: